This is the latest recevied weather packets stored in our database for station/object OK1FET-10. If no packets are shown the sender has not sent any weather packets the latest 1 day(s).
| Time | Temp. | Humidity | Pressure | Rain* | Wind** | Luminosity | Snow |
|---|---|---|---|---|---|---|---|
| 1778234651 | 38.33° C | 100% | 5.1 hPa | 0 mm | - | - | - |
| 1778232705 | 38.33° C | 100% | 5 hPa | 0 mm | - | - | - |
| 1778232056 | 38.33° C | 100% | 4.9 hPa | 0 mm | - | - | - |
| 1778230110 | - | - | - | 0 mm | - | - | - |
| 1778229949 | 23.89° C | 49% | 1019.6 hPa | 0 mm | - | - | - |
| 1778228241 | 23.89° C | 49% | 1019.5 hPa | 0 mm | - | - | - |
| 1778227119 | 23.33° C | 49% | 1019.5 hPa | 0.51 mm | - | - | - |
| 1778226466 | 23.33° C | 50% | 1019.5 hPa | 0 mm | - | - | - |
| 1778225824 | 23.33° C | 48% | 1019.4 hPa | 0 mm | - | - | - |
| 1778225182 | 23.89° C | 47% | 1019.3 hPa | 0 mm | - | - | - |
| 1778224540 | - | - | - | 0 mm | - | - | - |
| 1778224474 | 23.89° C | 47% | 1019.2 hPa | 1.52 mm | - | - | - |
| 1778223832 | 23.89° C | 48% | 1019.1 hPa | 1.52 mm | - | - | - |
| 1778223190 | 23.89° C | 47% | 1019 hPa | 1.52 mm | - | - | - |
| 1778222506 | - | - | - | 0 mm | - | - | - |
| 1778222391 | 24.44° C | 48% | 1018.9 hPa | 0.51 mm | - | - | - |
| 1778221787 | 23.89° C | 47% | 1018.8 hPa | 0.51 mm | - | - | - |
| 1778220882 | 23.89° C | 48% | 1018.7 hPa | 0.51 mm | - | - | - |
| 1778220580 | 23.89° C | 47% | 1018.7 hPa | 0.51 mm | - | - | - |
| 1778220279 | 23.89° C | 47% | 1018.6 hPa | 0.51 mm | - | - | - |
| 1778219977 | 23.89° C | 47% | 1018.6 hPa | 0.51 mm | - | - | - |
| 1778219374 | 23.33° C | 49% | 1018.6 hPa | 0.51 mm | - | - | - |
| 1778219069 | - | - | - | 0 mm | - | - | - |
| 1778218927 | 23.33° C | 47% | 1018.4 hPa | 0.51 mm | - | - | - |
| 1778218324 | 22.78° C | 47% | 1018.4 hPa | 0.51 mm | - | - | - |
* Rain latest hour (hover to see other rain measurements)
** Current wind speed in m/s (hover to see current wind gust speed)